Time;durP1;ratioP1;P1;durP2;ratioP2;P2;SDS_P1;SDS_P2;PMS_P1;PMS_P2;Temp;Humidity;BMP_temperature;BMP_pressure;BME280_temperature;BME280_humidity;BME280_pressure;Samples;Min_cycle;Max_cycle;Signal;HPM_P1;HPM_P2
2021/12/07 00:01:48;;;;;;;27.63;12.75;;;;;;;0.79;91.94;100384.44;5032779;28;20041;-74
2021/12/07 00:04:16;;;;;;;27.50;13.75;;;;;;;0.80;88.94;100380.69;5021038;28;20388;-74
2021/12/07 00:06:44;;;;;;;24.50;12.07;;;;;;;0.75;88.94;100381.34;5032604;28;20049;-74
2021/12/07 00:09:15;;;;;;;28.45;12.93;;;;;;;0.71;89.42;100393.59;5031835;28;20045;-74
2021/12/07 00:11:47;;;;;;;22.45;11.95;;;;;;;0.61;88.99;100388.72;5018365;28;20492;-74
2021/12/07 00:14:33;;;;;;;21.13;11.20;;;;;;;0.58;87.13;100385.63;5032697;28;20519;-75
2021/12/07 00:17:03;;;;;;;24.92;12.88;;;;;;;0.66;87.63;100390.75;5016654;28;20050;-74
2021/12/07 00:19:32;;;;;;;28.55;13.98;;;;;;;0.71;89.22;100396.31;5020464;28;20068;-74
2021/12/07 00:22:01;;;;;;;26.58;14.60;;;;;;;0.57;91.29;100392.03;5033096;28;20049;-74
2021/12/07 00:24:29;;;;;;;28.80;13.73;;;;;;;0.39;93.07;100393.63;5033506;28;20056;-74
2021/12/07 00:26:56;;;;;;;29.67;14.80;;;;;;;0.24;93.94;100392.03;5032195;28;20057;-74
2021/12/07 00:29:25;;;;;;;29.75;15.18;;;;;;;0.11;95.29;100384.03;5032096;28;20396;-74
2021/12/07 00:32:07;;;;;;;29.77;14.82;;;;;;;0.25;94.74;100374.03;5032587;28;20080;-74
2021/12/07 00:37:03;;;;;;;33.72;16.05;;;;;;;0.53;93.65;100379.03;5033396;28;20054;-74
2021/12/07 00:39:31;;;;;;;33.40;15.45;;;;;;;0.45;94.27;100381.16;5015343;28;20048;-74
2021/12/07 00:42:00;;;;;;;30.42;16.50;;;;;;;0.50;93.61;100390.22;5032824;28;20041;-74
2021/12/07 00:44:29;;;;;;;34.20;16.10;;;;;;;0.33;95.09;100397.16;5032820;28;20045;-74
2021/12/07 00:46:57;;;;;;;32.72;16.35;;;;;;;0.26;95.49;100403.41;5032951;28;20492;-74
2021/12/07 00:49:25;;;;;;;26.90;14.55;;;;;;;0.09;96.52;100399.56;5040720;28;20045;-74
2021/12/07 00:51:53;;;;;;;27.10;14.80;;;;;;;0.11;97.47;100405.56;5032527;28;20045;-74
2021/12/07 00:54:21;;;;;;;28.13;15.80;;;;;;;0.14;96.72;100386.28;5032672;28;20041;-74
2021/12/07 00:56:49;;;;;;;27.75;13.98;;;;;;;0.01;96.93;100395.28;5039951;28;20053;-74
2021/12/07 00:59:19;;;;;;;26.50;14.05;;;;;;;-0.06;97.41;100391.75;5054881;28;20044;-74
2021/12/07 01:01:47;;;;;;;32.00;13.85;;;;;;;0.06;96.31;100394.63;5069278;28;20047;-74
2021/12/07 01:04:15;;;;;;;24.65;13.02;;;;;;;0.05;96.56;100396.47;5058519;28;20055;-74
2021/12/07 01:25:58;;;;;;;18.92;9.43;;;;;;;-0.06;92.50;100376.47;5071358;28;20048;-74
2021/12/07 01:28:38;;;;;;;17.60;9.45;;;;;;;-0.18;93.23;100386.25;5072253;28;20048;-74
2021/12/07 01:34:05;;;;;;;20.55;9.43;;;;;;;-0.38;92.20;100384.47;5053399;28;20049;-74
2021/12/07 01:50:16;;;;;;;29.63;12.30;;;;;;;-0.62;95.16;100391.34;5079910;28;20048;-74
2021/12/07 01:53:16;;;;;;;24.10;10.95;;;;;;;-0.61;94.13;100399.19;5037489;28;20059;-74
2021/12/07 02:00:54;;;;;;;20.63;10.13;;;;;;;-0.85;93.42;100404.19;5053805;28;20036;-74
2021/12/07 02:03:22;;;;;;;20.40;9.73;;;;;;;-0.90;93.32;100412.03;5040146;28;20045;-74
2021/12/07 02:05:50;;;;;;;19.92;9.75;;;;;;;-0.92;93.55;100400.69;5053623;28;20039;-74
2021/12/07 02:08:19;;;;;;;18.55;9.88;;;;;;;-0.92;93.79;100405.22;5052748;28;20052;-74
2021/12/07 02:10:47;;;;;;;20.63;9.02;;;;;;;-0.88;93.59;100404.59;5057304;28;20398;-74
2021/12/07 02:14:00;;;;;;;18.83;8.98;;;;;;;-0.80;93.16;100411.63;5073466;28;20072;-74
2021/12/07 02:16:10;;;;;;;14.20;8.10;;;;;;;-0.66;92.20;100412.44;5057666;28;20049;-74
2021/12/07 02:18:40;;;;;;;19.25;9.63;;;;;;;-0.66;93.04;100416.97;5056966;28;20048;-75
2021/12/07 02:21:23;;;;;;;15.60;8.77;;;;;;;-0.68;93.83;100404.56;5074412;28;20040;-74
2021/12/07 02:23:58;;;;;;;18.48;9.05;;;;;;;-0.70;92.90;100395.06;5057365;28;20067;-74
2021/12/07 02:26:27;;;;;;;15.85;8.68;;;;;;;-0.71;91.93;100396.09;5057836;28;20040;-74
2021/12/07 02:28:57;;;;;;;17.02;8.82;;;;;;;-0.68;91.92;100384.94;5057535;28;20399;-74
2021/12/07 02:31:25;;;;;;;19.13;9.55;;;;;;;-0.65;90.95;100384.50;5057549;28;20509;-74
2021/12/07 02:33:54;;;;;;;17.00;8.65;;;;;;;-0.62;92.62;100391.34;5074935;28;20044;-74
2021/12/07 02:36:24;;;;;;;15.95;8.73;;;;;;;-0.63;91.69;100385.13;5074337;28;20045;-74
2021/12/07 02:38:53;;;;;;;15.57;8.95;;;;;;;-0.62;91.48;100378.72;5072872;28;20486;-74
2021/12/07 02:41:22;;;;;;;21.40;9.02;;;;;;;-0.61;90.85;100372.31;5073843;28;20059;-74
2021/12/07 02:43:50;;;;;;;23.55;9.70;;;;;;;-0.50;88.16;100367.31;5072817;28;20045;-74
2021/12/07 02:46:18;;;;;;;21.38;8.93;;;;;;;-0.51;89.12;100371.88;5057050;28;20048;-74
2021/12/07 02:48:49;;;;;;;16.40;8.32;;;;;;;-0.52;88.33;100366.69;5077573;28;20044;-74
2021/12/07 02:51:17;;;;;;;13.15;7.63;;;;;;;-0.52;87.65;100354.09;5060695;28;20043;-74
2021/12/07 02:53:47;;;;;;;12.85;6.65;;;;;;;-0.53;85.96;100343.53;5072847;28;20808;-74
2021/12/07 02:56:15;;;;;;;12.77;7.03;;;;;;;-0.51;84.70;100336.91;5073423;28;20041;-74
2021/12/07 02:58:44;;;;;;;12.32;6.82;;;;;;;-0.50;84.78;100351.19;5074842;28;20053;-74
2021/12/07 03:01:25;;;;;;;10.07;6.00;;;;;;;-0.53;82.65;100354.28;5056972;28;20048;-74
2021/12/07 03:04:03;;;;;;;10.93;5.88;;;;;;;-0.55;83.49;100381.38;5059902;28;20391;-74
2021/12/07 03:26:11;;;;;;;6.30;4.18;;;;;;;-0.61;81.45;100380.38;5073750;28;20056;-74
2021/12/07 03:28:48;;;;;;;9.02;4.35;;;;;;;-0.61;81.51;100383.06;5056497;28;20056;-74
2021/12/07 03:31:20;;;;;;;7.90;4.13;;;;;;;-0.65;81.27;100381.81;5041694;28;20402;-74
2021/12/07 03:33:55;;;;;;;6.13;4.15;;;;;;;-0.68;81.82;100376.88;5071959;28;20533;-74
2021/12/07 03:36:27;;;;;;;7.05;4.13;;;;;;;-0.67;80.71;100375.84;5059108;28;20052;-74
2021/12/07 03:38:58;;;;;;;7.50;4.10;;;;;;;-0.68;80.95;100371.50;5072924;28;20503;-74
2021/12/07 03:41:26;;;;;;;7.60;3.85;;;;;;;-0.66;80.91;100369.44;5055451;28;20482;-74
2021/12/07 03:43:54;;;;;;;5.88;3.63;;;;;;;-0.68;80.81;100375.00;5073153;28;20048;-74
2021/12/07 03:46:22;;;;;;;6.78;3.80;;;;;;;-0.65;80.68;100381.00;5072715;28;20047;-74
2021/12/07 03:48:51;;;;;;;4.80;3.72;;;;;;;-0.67;80.16;100375.84;5060093;28;20040;-74
2021/12/07 03:51:19;;;;;;;8.18;3.38;;;;;;;-0.67;79.87;100367.78;5076265;28;20056;-74
2021/12/07 03:53:48;;;;;;;5.57;3.58;;;;;;;-0.66;81.32;100357.84;5056007;28;20403;-74
2021/12/07 03:56:16;;;;;;;4.93;3.30;;;;;;;-0.73;80.82;100363.25;5055772;28;20056;-74
2021/12/07 03:58:44;;;;;;;5.80;3.35;;;;;;;-0.70;79.00;100368.19;5072852;28;20052;-74
2021/12/07 04:01:14;;;;;;;5.85;3.30;;;;;;;-0.39;78.67;100369.34;5072091;28;20434;-74
2021/12/07 04:03:45;;;;;;;5.82;3.35;;;;;;;-0.34;77.85;100374.91;5038525;28;20405;-74
2021/12/07 04:06:16;;;;;;;7.45;3.63;;;;;;;-0.45;80.81;100380.94;5073607;28;20052;-74
2021/12/07 04:08:44;;;;;;;7.15;3.85;;;;;;;-0.65;80.19;100387.19;5055207;28;20056;-74
2021/12/07 04:11:16;;;;;;;5.00;3.53;;;;;;;-0.76;80.49;100385.16;5072371;28;20045;-74
2021/12/07 04:13:45;;;;;;;8.88;3.80;;;;;;;-0.89;81.35;100386.81;5072296;28;20075;-74
2021/12/07 04:16:18;;;;;;;7.20;3.53;;;;;;;-0.98;81.80;100388.09;5054708;28;20499;-74
2021/12/07 04:18:49;;;;;;;7.20;3.60;;;;;;;-1.03;83.01;100387.88;5071035;28;20533;-74
2021/12/07 04:21:17;;;;;;;5.35;3.50;;;;;;;-1.06;83.30;100391.81;5054196;28;20055;-74
2021/12/07 04:23:46;;;;;;;7.07;4.00;;;;;;;-1.08;83.11;100399.22;5040695;28;20048;-74
2021/12/07 04:26:15;;;;;;;4.88;3.63;;;;;;;-1.09;83.39;100393.03;5063564;28;20053;-74
2021/12/07 04:28:44;;;;;;;4.75;3.53;;;;;;;-1.08;83.46;100400.06;5039861;28;20407;-74
2021/12/07 04:31:13;;;;;;;4.97;3.22;;;;;;;-1.02;84.43;100408.34;5052976;28;20033;-74
2021/12/07 04:33:41;;;;;;;3.88;3.08;;;;;;;-0.99;83.45;100407.91;5051697;28;20055;-74
2021/12/07 04:36:10;;;;;;;7.78;3.70;;;;;;;-0.87;82.36;100408.13;5050884;28;20048;-74
2021/12/07 04:38:39;;;;;;;7.95;3.00;;;;;;;-0.90;83.35;100411.22;5050739;28;20045;-74
2021/12/07 04:41:07;;;;;;;7.32;2.92;;;;;;;-0.92;83.67;100424.88;5050988;28;20048;-74
2021/12/07 04:43:37;;;;;;;4.22;3.15;;;;;;;-0.85;81.69;100425.69;5049568;28;20053;-74
2021/12/07 04:46:20;;;;;;;5.80;2.95;;;;;;;-0.78;81.29;100430.22;5050847;28;20597;-74
2021/12/07 04:59:37;;;;;;;5.75;2.63;;;;;;;-0.37;79.31;100414.84;5058334;28;20056;-74
2021/12/07 05:02:06;;;;;;;3.20;2.50;;;;;;;-0.31;79.18;100430.97;5051811;28;20052;-74
2021/12/07 05:04:36;;;;;;;4.28;2.22;;;;;;;-0.28;79.09;100422.47;5061468;28;20407;-74
2021/12/07 05:07:18;;;;;;;2.88;2.20;;;;;;;-0.25;78.59;100428.47;5060686;28;20048;-74
2021/12/07 05:14:45;;;;;;;2.67;2.22;;;;;;;-0.22;76.80;100419.97;5053439;28;20037;-74
2021/12/07 05:26:02;;;;;;;4.72;2.80;;;;;;;-0.04;76.98;100393.19;5054565;28;20049;-74
2021/12/07 05:39:36;;;;;;;4.20;2.47;;;;;;;-0.16;78.85;100441.47;5040854;28;20056;-74
2021/12/07 05:42:04;;;;;;;6.38;2.97;;;;;;;-0.22;79.66;100438.78;5065775;28;20047;-74
2021/12/07 05:44:32;;;;;;;4.00;2.92;;;;;;;-0.33;80.41;100441.13;5050927;28;20040;-74
2021/12/07 05:47:02;;;;;;;5.45;2.38;;;;;;;-0.33;79.80;100432.22;5059390;28;20063;-74
2021/12/07 05:49:31;;;;;;;5.68;2.78;;;;;;;-0.32;80.48;100434.69;5062253;28;20041;-74
2021/12/07 05:51:59;;;;;;;4.65;2.78;;;;;;;-0.38;80.35;100435.53;5055809;28;20048;-74
2021/12/07 05:54:27;;;;;;;3.22;2.42;;;;;;;-0.47;81.44;100431.41;5050816;28;20041;-74
2021/12/07 05:56:55;;;;;;;3.38;2.42;;;;;;;-0.59;82.78;100426.69;5052199;28;20043;-74
2021/12/07 05:59:23;;;;;;;5.22;2.53;;;;;;;-0.68;82.72;100436.00;5065830;28;20044;-74
2021/12/07 06:01:51;;;;;;;3.28;2.50;;;;;;;-0.63;81.39;100438.88;5054200;28;20044;-75
2021/12/07 06:04:19;;;;;;;4.05;3.28;;;;;;;-0.56;81.49;100430.81;5062947;28;20483;-73
2021/12/07 06:06:47;;;;;;;7.95;3.83;;;;;;;-0.57;81.58;100432.69;5063310;28;20044;-73
2021/12/07 06:09:15;;;;;;;9.43;5.35;;;;;;;-0.52;81.79;100444.66;5063642;28;20044;-73
2021/12/07 06:11:45;;;;;;;8.35;5.07;;;;;;;-0.55;81.99;100446.75;5062580;28;20040;-73
2021/12/07 06:14:18;;;;;;;12.60;5.45;;;;;;;-0.60;82.70;100448.38;5063818;28;20055;-73
2021/12/07 06:16:47;;;;;;;10.97;5.33;;;;;;;-0.46;81.96;100459.94;5069529;28;20048;-74
2021/12/07 06:19:15;;;;;;;15.88;5.88;;;;;;;-0.32;81.48;100480.41;5065744;28;20033;-75
2021/12/07 06:21:43;;;;;;;12.18;5.70;;;;;;;-0.44;82.60;100484.78;5060747;28;20059;-76
2021/12/07 06:24:11;;;;;;;14.30;7.05;;;;;;;-0.64;84.29;100484.81;5054535;28;20057;-75
2021/12/07 06:26:39;;;;;;;13.95;7.60;;;;;;;-0.77;85.34;100480.25;5048441;28;20538;-74
2021/12/07 06:29:07;;;;;;;15.10;8.13;;;;;;;-0.85;86.22;100463.31;5050851;28;20053;-74
2021/12/07 06:31:35;;;;;;;13.48;7.30;;;;;;;-0.97;86.25;100460.41;5048834;28;20037;-74
2021/12/07 06:34:03;;;;;;;15.10;7.30;;;;;;;-1.04;87.24;100464.13;5053705;28;20491;-74
2021/12/07 06:36:31;;;;;;;13.65;7.25;;;;;;;-1.12;87.82;100467.84;5055880;28;20399;-74
2021/12/07 06:38:59;;;;;;;13.20;7.00;;;;;;;-1.17;88.11;100475.69;5051227;28;20041;-75
2021/12/07 06:41:27;;;;;;;16.42;8.38;;;;;;;-1.08;88.28;100467.22;5073479;28;20044;-74
2021/12/07 06:43:55;;;;;;;15.45;7.63;;;;;;;-1.06;88.36;100475.06;5050667;28;20037;-74
2021/12/07 06:46:23;;;;;;;11.40;7.65;;;;;;;-0.99;86.68;100478.59;5049490;28;20045;-74
2021/12/07 06:48:53;;;;;;;13.80;7.72;;;;;;;-0.98;86.55;100474.88;5038957;28;20487;-74
2021/12/07 06:51:22;;;;;;;14.63;7.80;;;;;;;-1.00;87.13;100482.31;5036670;28;20056;-74
2021/12/07 06:53:50;;;;;;;18.73;7.82;;;;;;;-0.99;88.06;100483.97;5050067;28;20447;-74
2021/12/07 06:56:18;;;;;;;15.00;7.35;;;;;;;-0.99;87.90;100483.97;5052739;28;20496;-74
2021/12/07 06:58:46;;;;;;;15.23;7.75;;;;;;;-0.88;87.51;100485.19;5054354;28;20052;-74
2021/12/07 07:01:15;;;;;;;11.70;6.43;;;;;;;-0.81;87.36;100490.59;5053891;28;20160;-74
2021/12/07 07:03:43;;;;;;;16.20;8.15;;;;;;;-0.81;87.09;100485.22;5056291;28;20345;-74
2021/12/07 07:06:11;;;;;;;12.82;7.38;;;;;;;-0.77;87.35;100488.31;5074593;28;20055;-74
2021/12/07 07:08:39;;;;;;;10.68;6.47;;;;;;;-0.78;87.00;100492.03;5074464;28;20051;-74
2021/12/07 07:11:07;;;;;;;12.43;6.70;;;;;;;-0.80;87.36;100483.38;5074451;28;20394;-74
2021/12/07 07:13:36;;;;;;;11.93;7.68;;;;;;;-0.71;86.02;100493.69;5073375;28;20052;-74
2021/12/07 07:16:05;;;;;;;12.60;7.05;;;;;;;-0.66;85.63;100497.59;5074557;28;20045;-74
2021/12/07 07:18:34;;;;;;;14.13;7.88;;;;;;;-0.51;86.67;100510.81;5074019;28;20049;-75
2021/12/07 07:21:02;;;;;;;13.65;7.43;;;;;;;-0.32;85.56;100503.78;5074296;28;20052;-74
2021/12/07 07:23:32;;;;;;;20.00;8.45;;;;;;;-0.04;83.68;100516.16;5074159;28;20059;-74
2021/12/07 07:26:01;;;;;;;19.23;9.32;;;;;;;0.24;81.65;100521.25;5074025;28;20060;-67
2021/12/07 07:28:30;;;;;;;15.93;8.82;;;;;;;0.46;81.26;100520.97;5074230;28;20049;-78
2021/12/07 07:30:58;;;;;;;20.60;9.65;;;;;;;0.56;79.92;100517.81;5073338;28;20044;-78
2021/12/07 07:33:27;;;;;;;21.63;9.35;;;;;;;0.66;78.81;100526.25;5074154;28;20495;-80
2021/12/07 07:35:55;;;;;;;20.85;9.35;;;;;;;0.86;78.80;100524.47;5058174;28;20055;-81
2021/12/07 07:38:23;;;;;;;20.27;8.63;;;;;;;0.98;77.25;100536.19;5076823;28;20043;-79
2021/12/07 07:40:51;;;;;;;17.42;9.32;;;;;;;1.14;77.07;100529.50;5079606;28;20036;-79
2021/12/07 07:43:24;;;;;;;16.10;8.77;;;;;;;1.24;75.40;100541.63;5055712;28;20049;-81
2021/12/07 07:46:07;;;;;;;23.98;8.82;;;;;;;1.47;73.78;100541.06;5056209;28;20055;-80
2021/12/07 07:48:35;;;;;;;17.95;9.23;;;;;;;1.53;73.95;100542.88;5073047;28;20052;-80
2021/12/07 07:51:04;;;;;;;19.27;9.20;;;;;;;1.52;72.92;100543.09;5066773;28;20053;-80
2021/12/07 07:53:32;;;;;;;18.70;9.60;;;;;;;1.58;74.34;100550.31;5065267;28;20052;-80
2021/12/07 07:56:03;;;;;;;20.63;9.65;;;;;;;1.61;73.86;100547.16;5054876;28;20064;-80
2021/12/07 07:58:31;;;;;;;18.20;8.70;;;;;;;1.70;73.51;100550.41;5072867;28;20048;-80
2021/12/07 08:01:01;;;;;;;12.93;7.85;;;;;;;1.70;74.27;100547.69;5082089;28;20495;-80
2021/12/07 08:03:29;;;;;;;22.48;8.98;;;;;;;1.82;73.47;100543.25;5059115;28;20056;-80
2021/12/07 08:05:57;;;;;;;18.83;8.32;;;;;;;1.93;72.52;100548.94;5067172;28;20064;-80
2021/12/07 08:08:28;;;;;;;18.10;8.18;;;;;;;1.95;69.88;100544.97;5040260;28;20068;-80
2021/12/07 08:10:56;;;;;;;14.00;7.82;;;;;;;2.04;69.65;100540.09;5071749;28;20053;-80
2021/12/07 08:13:24;;;;;;;14.25;6.88;;;;;;;2.27;68.34;100539.47;5072058;28;20059;-80
2021/12/07 08:15:52;;;;;;;9.95;6.15;;;;;;;2.45;68.82;100545.06;5071769;28;20044;-80
2021/12/07 08:18:22;;;;;;;17.85;7.35;;;;;;;2.60;68.99;100553.63;5078227;28;20048;-80
2021/12/07 08:20:50;;;;;;;15.00;6.40;;;;;;;2.75;68.23;100544.28;5072224;28;20052;-80
2021/12/07 08:23:18;;;;;;;15.15;7.00;;;;;;;2.91;67.66;100542.81;5073192;28;20063;-80
2021/12/07 08:25:47;;;;;;;14.50;6.65;;;;;;;3.27;67.43;100534.81;5072690;28;20055;-79
2021/12/07 08:28:19;;;;;;;11.65;7.05;;;;;;;3.31;65.90;100541.38;5071395;28;20789;-79
2021/12/07 08:30:49;;;;;;;14.98;6.55;;;;;;;3.44;65.13;100551.19;5071619;28;20053;-79
2021/12/07 08:33:17;;;;;;;13.85;6.53;;;;;;;3.51;65.66;100556.50;5072880;28;20624;-78
2021/12/07 08:35:46;;;;;;;13.38;6.15;;;;;;;3.62;64.26;100559.19;5072427;28;20057;-78
2021/12/07 08:38:14;;;;;;;10.30;5.30;;;;;;;3.83;59.33;100558.84;5072651;28;20048;-78
2021/12/07 08:40:42;;;;;;;9.52;5.40;;;;;;;3.69;59.98;100556.38;5072366;28;20053;-79
2021/12/07 08:43:12;;;;;;;9.15;4.88;;;;;;;4.10;60.73;100552.97;5072206;28;20056;-78
2021/12/07 08:45:41;;;;;;;14.35;5.88;;;;;;;4.50;60.90;100552.16;5071699;28;20047;-78
2021/12/07 08:48:09;;;;;;;9.15;5.20;;;;;;;4.73;59.61;100560.50;5072625;28;20509;-78
2021/12/07 08:50:38;;;;;;;12.35;5.93;;;;;;;4.78;60.52;100572.25;5071414;28;20045;-78
2021/12/07 08:53:08;;;;;;;10.63;5.50;;;;;;;5.02;60.15;100571.31;5060426;28;20056;-79
2021/12/07 09:01:12;;;;;;;12.65;6.25;;;;;;;5.18;55.63;100564.31;5072569;28;20049;-79
2021/12/07 09:03:40;;;;;;;11.93;5.68;;;;;;;5.52;58.41;100567.03;5058122;28;20072;-79
2021/12/07 09:06:08;;;;;;;10.32;5.13;;;;;;;5.62;54.75;100567.22;5071444;28;20052;-78
2021/12/07 09:08:40;;;;;;;13.65;6.32;;;;;;;5.47;56.03;100583.25;5065878;28;20055;-78
2021/12/07 09:11:09;;;;;;;10.88;5.43;;;;;;;5.81;55.38;100571.56;5071707;28;20049;-77
2021/12/07 09:13:37;;;;;;;10.07;5.32;;;;;;;5.97;55.94;100569.91;5072171;28;20052;-77
2021/12/07 09:16:08;;;;;;;9.80;5.00;;;;;;;6.01;55.03;100576.50;5058181;28;20052;-77
2021/12/07 09:18:36;;;;;;;14.40;5.20;;;;;;;5.97;55.75;100583.50;5070974;28;20040;-78
2021/12/07 09:21:05;;;;;;;9.45;5.80;;;;;;;6.12;56.97;100578.28;5071545;28;20407;-78
2021/12/07 09:23:33;;;;;;;13.90;5.88;;;;;;;6.42;54.51;100587.97;5071954;28;20055;-78
2021/12/07 09:26:03;;;;;;;9.38;4.82;;;;;;;6.59;53.61;100579.75;5053789;28;20053;-77
2021/12/07 09:28:36;;;;;;;9.30;5.32;;;;;;;6.51;53.79;100595.69;5054530;28;20057;-77
2021/12/07 09:31:06;;;;;;;6.93;3.95;;;;;;;6.69;52.49;100603.50;5071664;28;20040;-78
2021/12/07 09:33:37;;;;;;;5.55;3.42;;;;;;;6.59;49.83;100596.06;5054106;28;20059;-78
2021/12/07 09:36:07;;;;;;;5.78;3.30;;;;;;;6.48;50.07;100588.84;5070311;28;20052;-77
2021/12/07 09:38:36;;;;;;;5.97;3.63;;;;;;;6.53;50.40;100591.63;5071086;28;20372;-77
2021/12/07 09:41:08;;;;;;;4.00;3.00;;;;;;;6.81;50.95;100594.41;5065463;28;20056;-77
2021/12/07 09:43:36;;;;;;;6.35;3.75;;;;;;;6.82;48.68;100596.03;5064649;28;20045;-77
2021/12/07 09:46:07;;;;;;;7.13;3.72;;;;;;;6.82;47.18;100599.59;5071794;28;20052;-77
2021/12/07 09:48:36;;;;;;;13.50;7.00;;;;;;;6.96;46.58;100593.75;5071042;28;20083;-78
2021/12/07 09:51:07;;;;;;;11.65;6.65;;;;;;;7.02;48.55;100594.63;5069815;28;20077;-76
2021/12/07 09:53:35;;;;;;;6.55;3.92;;;;;;;7.03;48.58;100590.84;5070990;28;20514;-78
2021/12/07 09:56:09;;;;;;;12.60;7.25;;;;;;;7.18;47.96;100591.00;5070157;28;20048;-77
2021/12/07 09:58:39;;;;;;;11.35;5.20;;;;;;;7.22;47.37;100596.75;5070452;28;20051;-77
2021/12/07 10:01:09;;;;;;;11.65;6.07;;;;;;;7.10;49.42;100592.25;5070591;28;20064;-77
2021/12/07 10:03:39;;;;;;;6.03;4.20;;;;;;;7.09;49.02;100592.53;5057144;28;20518;-76
2021/12/07 10:06:08;;;;;;;6.03;4.80;;;;;;;7.43;50.01;100580.63;5071384;28;20055;-76
2021/12/07 10:08:37;;;;;;;5.60;3.58;;;;;;;7.62;47.26;100578.34;5071190;28;20491;-77
2021/12/07 10:11:08;;;;;;;10.20;4.60;;;;;;;7.60;48.21;100583.19;5065028;28;20396;-76
2021/12/07 10:13:40;;;;;;;16.25;5.75;;;;;;;7.68;50.21;100577.28;5046787;28;20048;-76
2021/12/07 10:16:10;;;;;;;12.02;5.65;;;;;;;7.65;49.88;100567.72;5070439;28;20387;-76
2021/12/07 10:18:42;;;;;;;12.20;5.72;;;;;;;7.68;50.94;100573.72;5071015;28;20162;-76
2021/12/07 10:21:26;;;;;;;7.32;4.65;;;;;;;7.69;51.68;100573.47;5076132;28;20041;-77
2021/12/07 10:24:08;;;;;;;14.38;5.50;;;;;;;7.68;51.61;100568.28;5071542;28;20048;-76
2021/12/07 10:26:39;;;;;;;9.15;5.43;;;;;;;7.60;51.20;100558.69;5071933;28;20399;-76
2021/12/07 10:29:11;;;;;;;8.50;4.93;;;;;;;7.63;51.66;100558.97;5070097;28;20407;-76
2021/12/07 10:31:43;;;;;;;8.10;4.63;;;;;;;7.52;50.05;100552.66;5074038;28;20044;-76
2021/12/07 10:34:21;;;;;;;9.73;5.03;;;;;;;7.39;51.15;100544.91;5074137;28;20047;-76
2021/12/07 10:36:56;;;;;;;10.30;6.05;;;;;;;7.47;51.35;100546.31;5075282;28;20040;-76
2021/12/07 10:39:33;;;;;;;7.63;4.55;;;;;;;7.22;50.90;100540.41;5075068;28;20048;-76
2021/12/07 10:42:10;;;;;;;7.00;4.20;;;;;;;7.46;50.34;100564.56;5075596;28;20040;-76
2021/12/07 10:45:05;;;;;;;7.10;4.55;;;;;;;7.67;51.38;100556.56;5075044;28;20040;-76
2021/12/07 10:47:34;;;;;;;10.43;5.65;;;;;;;7.60;51.99;100551.34;5074593;28;20049;-76
2021/12/07 10:50:09;;;;;;;10.43;6.05;;;;;;;7.75;51.47;100556.09;5073609;28;20043;-76
2021/12/07 10:52:42;;;;;;;10.60;4.82;;;;;;;8.03;48.16;100553.28;5074132;28;20055;-76
2021/12/07 10:55:18;;;;;;;6.70;3.97;;;;;;;7.75;45.56;100561.53;5072756;28;20047;-76
2021/12/07 10:57:52;;;;;;;3.28;2.72;;;;;;;7.57;46.11;100553.78;5033492;28;20056;-77
2021/12/07 11:00:27;;;;;;;2.20;2.00;;;;;;;7.73;42.86;100562.88;5061223;28;20055;-76
2021/12/07 11:03:06;;;;;;;1.98;1.27;;;;;;;7.80;42.14;100552.56;5064076;28;20049;-76
2021/12/07 11:05:38;;;;;;;2.33;2.03;;;;;;;7.86;42.00;100556.16;5071839;28;20060;-76
2021/12/07 11:08:08;;;;;;;2.28;1.63;;;;;;;7.84;42.61;100536.50;5074524;28;20048;-76
2021/12/07 11:10:48;;;;;;;1.55;1.45;;;;;;;7.55;41.68;100529.53;5072040;28;20048;-76
2021/12/07 11:13:25;;;;;;;1.60;1.38;;;;;;;7.77;39.12;100513.06;5074437;28;20067;-76
2021/12/07 11:16:01;;;;;;;1.80;1.60;;;;;;;7.94;39.07;100493.78;5074671;28;20387;-76
2021/12/07 11:18:36;;;;;;;3.00;1.30;;;;;;;7.91;41.10;100496.22;5074090;28;20055;-76
2021/12/07 11:21:08;;;;;;;1.73;1.48;;;;;;;7.84;42.18;100501.09;5074410;28;20056;-76
2021/12/07 11:23:39;;;;;;;1.73;1.50;;;;;;;7.83;41.26;100502.19;5074111;28;20045;-76
2021/12/07 11:31:40;;;;;;;4.63;2.42;;;;;;;7.49;42.05;100504.13;5053976;28;20044;-76
2021/12/07 11:34:10;;;;;;;1.95;1.60;;;;;;;7.53;40.71;100510.72;5073275;28;20052;-76
2021/12/07 11:36:43;;;;;;;2.60;1.73;;;;;;;7.43;38.70;100516.06;5074204;28;20040;-76
2021/12/07 11:39:36;;;;;;;2.67;1.83;;;;;;;7.69;40.71;100512.72;5072962;28;20041;-76
2021/12/07 11:42:33;;;;;;;1.98;1.77;;;;;;;7.70;39.59;100503.47;5071708;28;20889;-77
2021/12/07 11:45:16;;;;;;;2.80;1.50;;;;;;;7.74;41.13;100502.69;5073926;28;20487;-76
2021/12/07 11:47:44;;;;;;;2.05;1.80;;;;;;;7.93;39.85;100497.59;5073897;28;20553;-76
2021/12/07 11:50:19;;;;;;;2.33;1.27;;;;;;;8.11;39.50;100492.00;5069863;28;20052;-76
2021/12/07 11:52:53;;;;;;;2.83;1.20;;;;;;;8.00;39.42;100481.03;5065515;28;20051;-78
2021/12/07 11:55:23;;;;;;;1.83;1.40;;;;;;;8.28;39.39;100478.16;5022412;28;20518;-59
2021/12/07 11:57:53;;;;;;;2.13;1.30;;;;;;;8.29;39.70;100483.34;5057155;28;20048;-60
2021/12/07 12:00:34;;;;;;;3.17;1.38;;;;;;;8.24;40.90;100477.03;5062923;28;20510;-77
2021/12/07 12:03:09;;;;;;;3.03;1.67;;;;;;;8.06;41.54;100479.13;5051471;28;20515;-77
2021/12/07 12:05:40;;;;;;;1.60;1.50;;;;;;;8.29;39.84;100469.72;5021152;28;20059;-77
2021/12/07 12:08:14;;;;;;;1.35;1.25;;;;;;;8.35;39.45;100476.00;5063559;28;20048;-77
2021/12/07 12:10:56;;;;;;;1.98;1.45;;;;;;;8.18;42.16;100468.03;5063116;28;20049;-77
2021/12/07 12:13:49;;;;;;;2.13;1.23;;;;;;;8.06;40.07;100476.41;5065886;28;20067;-76
2021/12/07 12:16:45;;;;;;;2.28;1.10;;;;;;;8.05;38.00;100467.44;5060726;28;20052;-76
2021/12/07 12:19:30;;;;;;;1.27;0.95;;;;;;;8.25;38.09;100452.25;5068765;28;20051;-77
2021/12/07 12:22:21;;;;;;;2.60;1.15;;;;;;;8.44;36.61;100452.56;5071456;28;20476;-77
2021/12/07 12:25:00;;;;;;;1.92;0.90;;;;;;;8.17;38.03;100436.41;5060797;28;20041;-77
2021/12/07 12:27:33;;;;;;;0.93;0.60;;;;;;;8.37;38.86;100432.09;5057325;28;20056;-77
2021/12/07 12:30:23;;;;;;;1.40;0.85;;;;;;;8.46;37.07;100434.03;5044929;28;20479;-77
2021/12/07 12:32:57;;;;;;;5.05;1.23;;;;;;;8.49;36.50;100427.22;5065154;28;20033;-76
2021/12/07 12:35:34;;;;;;;1.67;1.30;;;;;;;8.73;38.10;100421.28;5058528;28;20049;-77
2021/12/07 12:38:14;;;;;;;1.60;1.10;;;;;;;8.77;36.70;100406.00;5064621;28;20040;-77
2021/12/07 12:40:42;;;;;;;4.97;1.23;;;;;;;8.73;37.49;100419.38;5045332;28;20052;-76
2021/12/07 12:43:12;;;;;;;1.10;1.00;;;;;;;8.77;38.70;100425.13;5064707;28;20063;-78
2021/12/07 12:45:47;;;;;;;6.97;1.25;;;;;;;8.80;35.79;100424.56;5043907;28;20036;-77
2021/12/07 12:48:21;;;;;;;1.70;1.05;;;;;;;8.73;36.49;100415.81;5070234;28;20052;-77
2021/12/07 12:50:50;;;;;;;1.23;0.85;;;;;;;8.93;36.66;100414.19;5058895;28;20041;-78
2021/12/07 12:53:22;;;;;;;2.08;0.77;;;;;;;8.84;35.96;100406.56;5063129;28;20063;-78
2021/12/07 12:55:56;;;;;;;1.55;0.95;;;;;;;9.02;37.18;100407.09;5068152;28;20071;-78
2021/12/07 12:58:28;;;;;;;1.48;1.05;;;;;;;8.98;37.22;100406.84;5069478;28;20051;-78
2021/12/07 13:01:05;;;;;;;1.83;1.13;;;;;;;8.46;40.53;100397.78;5067444;28;20041;-78
2021/12/07 13:03:42;;;;;;;3.40;0.95;;;;;;;8.52;38.45;100396.72;5051913;28;20391;-77
2021/12/07 13:06:24;;;;;;;1.20;1.10;;;;;;;8.58;39.24;100405.72;5071264;28;20064;-77
2021/12/07 13:09:18;;;;;;;1.75;1.20;;;;;;;8.64;39.69;100407.34;5061300;28;20052;-78
2021/12/07 13:11:46;;;;;;;;;;;;;;;8.57;40.31;100418.53;5054660;28;20049;-77
2021/12/07 13:14:23;;;;;;;3.47;2.63;;;;;;;8.51;40.13;100425.03;5051643;28;19920;-78
2021/12/07 13:17:18;;;;;;;13.80;6.68;;;;;;;8.42;39.93;100432.13;5052316;28;21662;-77
2021/12/07 13:20:05;;;;;;;;;;;;;;;8.51;40.68;100419.56;5064917;28;20060;-77
2021/12/07 13:22:53;;;;;;;17.95;11.55;;;;;;;8.49;42.30;100420.97;5054076;28;19928;-77
2021/12/07 13:25:26;;;;;;;3.30;3.00;;;;;;;8.31;41.50;100415.72;5054350;28;20052;-77
2021/12/07 13:28:17;;;;;;;2.75;2.20;;;;;;;8.06;43.23;100411.84;5063010;28;20780;-77
2021/12/07 13:30:45;;;;;;;5.10;4.70;;;;;;;7.88;43.39;100415.03;5048815;28;20052;-78
2021/12/07 13:33:20;;;;;;;6.75;4.82;;;;;;;7.86;42.47;100412.56;5063174;28;20040;-77
2021/12/07 13:35:51;;;;;;;3.47;2.80;;;;;;;7.98;41.87;100415.09;5062159;28;20403;-77
2021/12/07 13:38:24;;;;;;;3.85;3.10;;;;;;;8.40;41.36;100420.66;5064380;28;20036;-77